sensor_id;sensor_type;location;lat;lon;timestamp;pressure;altitude;pressure_sealevel;temperature;humidity
50364;BME280;36272;59.400;17.982;2023-07-29T00:03:38;100040.16;;;14.91;85.14
50364;BME280;36272;59.400;17.982;2023-07-29T00:08:40;100041.22;;;14.90;85.55
50364;BME280;36272;59.400;17.982;2023-07-29T00:13:42;100036.91;;;14.89;85.49
50364;BME280;36272;59.400;17.982;2023-07-29T00:18:43;100029.91;;;14.87;85.71
50364;BME280;36272;59.400;17.982;2023-07-29T00:23:45;100031.81;;;14.87;85.85
50364;BME280;36272;59.400;17.982;2023-07-29T00:28:47;100018.59;;;14.85;85.82
50364;BME280;36272;59.400;17.982;2023-07-29T00:33:49;100014.31;;;14.84;85.92
50364;BME280;36272;59.400;17.982;2023-07-29T00:38:50;100012.97;;;14.82;85.98
50364;BME280;36272;59.400;17.982;2023-07-29T00:43:59;100003.53;;;14.79;86.28
50364;BME280;36272;59.400;17.982;2023-07-29T00:49:01;100005.69;;;14.77;85.98
50364;BME280;36272;59.400;17.982;2023-07-29T00:54:03;99999.50;;;14.77;86.26
50364;BME280;36272;59.400;17.982;2023-07-29T00:59:05;100007.84;;;14.75;86.30
50364;BME280;36272;59.400;17.982;2023-07-29T01:04:06;100000.56;;;14.76;86.54
50364;BME280;36272;59.400;17.982;2023-07-29T01:09:20;99992.50;;;14.76;86.54
50364;BME280;36272;59.400;17.982;2023-07-29T01:14:47;99976.63;;;14.74;86.66
50364;BME280;36272;59.400;17.982;2023-07-29T01:20:08;99974.72;;;14.75;86.58
50364;BME280;36272;59.400;17.982;2023-07-29T01:25:10;99994.94;;;14.77;86.67
50364;BME280;36272;59.400;17.982;2023-07-29T01:30:12;99977.16;;;14.76;86.72
50364;BME280;36272;59.400;17.982;2023-07-29T01:40:23;99975.28;;;14.77;86.95
50364;BME280;36272;59.400;17.982;2023-07-29T01:45:28;99969.63;;;14.78;86.86
50364;BME280;36272;59.400;17.982;2023-07-29T01:50:36;99970.44;;;14.79;86.94
50364;BME280;36272;59.400;17.982;2023-07-29T01:55:38;99970.97;;;14.81;86.95
50364;BME280;36272;59.400;17.982;2023-07-29T02:00:40;99979.03;;;14.81;87.00
50364;BME280;36272;59.400;17.982;2023-07-29T02:05:42;99975.28;;;14.82;86.83
50364;BME280;36272;59.400;17.982;2023-07-29T02:10:45;99977.69;;;14.83;87.25
50364;BME280;36272;59.400;17.982;2023-07-29T02:15:46;99982.53;;;14.81;86.99
50364;BME280;36272;59.400;17.982;2023-07-29T02:20:48;99978.22;;;14.80;86.96
50364;BME280;36272;59.400;17.982;2023-07-29T02:25:50;99985.22;;;14.81;87.10
50364;BME280;36272;59.400;17.982;2023-07-29T02:31:20;99970.16;;;14.80;87.42
50364;BME280;36272;59.400;17.982;2023-07-29T02:36:21;99980.91;;;14.80;87.08
50364;BME280;36272;59.400;17.982;2023-07-29T02:41:23;99978.22;;;14.80;87.14
50364;BME280;36272;59.400;17.982;2023-07-29T02:46:25;99979.84;;;14.81;86.85
50364;BME280;36272;59.400;17.982;2023-07-29T02:51:26;99975.81;;;14.79;87.16
50364;BME280;36272;59.400;17.982;2023-07-29T02:56:28;99972.03;;;14.80;86.98
50364;BME280;36272;59.400;17.982;2023-07-29T03:01:32;99975.53;;;14.80;87.09
50364;BME280;36272;59.400;17.982;2023-07-29T03:06:33;99979.31;;;14.84;87.08
50364;BME280;36272;59.400;17.982;2023-07-29T03:11:35;99972.84;;;14.85;86.97
50364;BME280;36272;59.400;17.982;2023-07-29T03:16:36;99967.75;;;14.89;87.09
50364;BME280;36272;59.400;17.982;2023-07-29T03:21:38;99978.78;;;14.93;86.66
50364;BME280;36272;59.400;17.982;2023-07-29T03:26:39;99975.53;;;14.96;86.64
50364;BME280;36272;59.400;17.982;2023-07-29T03:31:41;99974.22;;;14.98;86.62
50364;BME280;36272;59.400;17.982;2023-07-29T03:36:43;99968.25;;;15.01;86.48
50364;BME280;36272;59.400;17.982;2023-07-29T03:41:44;99977.41;;;15.06;86.26
50364;BME280;36272;59.400;17.982;2023-07-29T03:46:46;99983.88;;;15.10;86.35
50364;BME280;36272;59.400;17.982;2023-07-29T03:51:48;99990.09;;;15.15;86.10
50364;BME280;36272;59.400;17.982;2023-07-29T03:56:49;99989.28;;;15.20;85.81
50364;BME280;36272;59.400;17.982;2023-07-29T04:01:51;99980.13;;;15.26;85.39
50364;BME280;36272;59.400;17.982;2023-07-29T04:06:52;99981.72;;;15.32;85.44
50364;BME280;36272;59.400;17.982;2023-07-29T04:11:55;99974.97;;;15.40;85.31
50364;BME280;36272;59.400;17.982;2023-07-29T04:16:56;99974.66;;;15.47;84.91
50364;BME280;36272;59.400;17.982;2023-07-29T04:21:58;99980.34;;;15.56;84.79
50364;BME280;36272;59.400;17.982;2023-07-29T04:27:00;99974.38;;;15.64;84.39
50364;BME280;36272;59.400;17.982;2023-07-29T04:32:05;99956.53;;;15.73;84.22
50364;BME280;36272;59.400;17.982;2023-07-29T04:37:06;99984.56;;;15.83;83.71
50364;BME280;36272;59.400;17.982;2023-07-29T04:42:08;99994.81;;;15.91;83.64
50364;BME280;36272;59.400;17.982;2023-07-29T04:47:10;99987.25;;;15.98;83.23
50364;BME280;36272;59.400;17.982;2023-07-29T04:52:11;99987.19;;;16.09;83.37
50364;BME280;36272;59.400;17.982;2023-07-29T04:57:13;99994.44;;;16.18;82.91
50364;BME280;36272;59.400;17.982;2023-07-29T05:02:14;99988.16;;;16.28;82.53
50364;BME280;36272;59.400;17.982;2023-07-29T05:07:16;99988.38;;;16.37;82.45
50364;BME280;36272;59.400;17.982;2023-07-29T05:12:18;99992.94;;;16.47;82.31
50364;BME280;36272;59.400;17.982;2023-07-29T05:17:20;99995.84;;;16.56;82.25
50364;BME280;36272;59.400;17.982;2023-07-29T05:22:21;100001.97;;;16.67;81.78
50364;BME280;36272;59.400;17.982;2023-07-29T05:27:23;99995.13;;;16.79;81.49
50364;BME280;36272;59.400;17.982;2023-07-29T05:32:25;100004.00;;;16.90;81.58
50364;BME280;36272;59.400;17.982;2023-07-29T05:37:26;100007.72;;;17.00;81.32
50364;BME280;36272;59.400;17.982;2023-07-29T05:42:28;99999.81;;;17.08;81.06
50364;BME280;36272;59.400;17.982;2023-07-29T05:47:30;100000.25;;;17.21;80.71
50364;BME280;36272;59.400;17.982;2023-07-29T05:52:32;100005.28;;;17.33;80.26
50364;BME280;36272;59.400;17.982;2023-07-29T05:57:33;99995.97;;;17.44;79.84
50364;BME280;36272;59.400;17.982;2023-07-29T06:02:35;99995.88;;;17.54;79.65
50364;BME280;36272;59.400;17.982;2023-07-29T06:07:36;99999.00;;;17.67;79.03
50364;BME280;36272;59.400;17.982;2023-07-29T06:12:39;99994.25;;;17.78;78.93
50364;BME280;36272;59.400;17.982;2023-07-29T06:17:40;99992.25;;;17.89;78.62
50364;BME280;36272;59.400;17.982;2023-07-29T06:22:42;100007.28;;;18.00;78.13
50364;BME280;36272;59.400;17.982;2023-07-29T06:27:45;100003.38;;;18.11;77.48
50364;BME280;36272;59.400;17.982;2023-07-29T06:32:47;100011.66;;;18.20;77.02
50364;BME280;36272;59.400;17.982;2023-07-29T06:37:49;100001.00;;;18.29;76.86
50364;BME280;36272;59.400;17.982;2023-07-29T06:42:50;100011.38;;;18.41;76.28
50364;BME280;36272;59.400;17.982;2023-07-29T06:47:53;100008.22;;;18.53;75.84
50364;BME280;36272;59.400;17.982;2023-07-29T06:52:54;100004.88;;;18.61;75.47
50364;BME280;36272;59.400;17.982;2023-07-29T06:57:56;100011.25;;;18.70;75.02
50364;BME280;36272;59.400;17.982;2023-07-29T07:08:23;100003.59;;;18.92;74.44
50364;BME280;36272;59.400;17.982;2023-07-29T07:13:24;100012.09;;;19.04;73.68
50364;BME280;36272;59.400;17.982;2023-07-29T07:18:26;100011.34;;;19.17;72.98
50364;BME280;36272;59.400;17.982;2023-07-29T07:23:28;100014.16;;;19.26;72.57
50364;BME280;36272;59.400;17.982;2023-07-29T07:28:30;100026.16;;;19.39;72.57
50364;BME280;36272;59.400;17.982;2023-07-29T07:33:36;99999.66;;;19.50;71.51
50364;BME280;36272;59.400;17.982;2023-07-29T07:38:38;100019.25;;;19.61;71.10
50364;BME280;36272;59.400;17.982;2023-07-29T07:43:39;100019.06;;;19.71;70.43
50364;BME280;36272;59.400;17.982;2023-07-29T07:48:41;100012.63;;;19.81;69.74
50364;BME280;36272;59.400;17.982;2023-07-29T07:53:43;100003.72;;;19.95;69.68
50364;BME280;36272;59.400;17.982;2023-07-29T07:58:44;100005.63;;;20.08;69.14
50364;BME280;36272;59.400;17.982;2023-07-29T08:03:46;99997.47;;;20.22;68.22
50364;BME280;36272;59.400;17.982;2023-07-29T08:08:48;99999.63;;;20.34;66.94
50364;BME280;36272;59.400;17.982;2023-07-29T08:13:50;100009.97;;;20.46;66.42
50364;BME280;36272;59.400;17.982;2023-07-29T08:18:51;100002.09;;;20.58;65.88
50364;BME280;36272;59.400;17.982;2023-07-29T08:23:53;100006.34;;;20.73;65.93
50364;BME280;36272;59.400;17.982;2023-07-29T08:28:54;99994.06;;;20.90;66.04
50364;BME280;36272;59.400;17.982;2023-07-29T08:33:56;99998.91;;;21.02;66.47
50364;BME280;36272;59.400;17.982;2023-07-29T08:38:58;99997.44;;;21.18;65.98
50364;BME280;36272;59.400;17.982;2023-07-29T08:49:06;99986.16;;;21.43;65.74
50364;BME280;36272;59.400;17.982;2023-07-29T08:54:10;99986.59;;;21.59;65.60
50364;BME280;36272;59.400;17.982;2023-07-29T08:59:13;99982.97;;;21.72;64.13
50364;BME280;36272;59.400;17.982;2023-07-29T09:04:15;99999.81;;;21.83;63.34
50364;BME280;36272;59.400;17.982;2023-07-29T09:09:17;99999.22;;;21.95;63.19
50364;BME280;36272;59.400;17.982;2023-07-29T09:14:19;99994.41;;;22.09;62.55
50364;BME280;36272;59.400;17.982;2023-07-29T09:19:25;99981.97;;;22.17;61.65
50364;BME280;36272;59.400;17.982;2023-07-29T09:24:27;99987.88;;;22.28;61.12
50364;BME280;36272;59.400;17.982;2023-07-29T09:29:31;100001.88;;;22.44;61.08
50364;BME280;36272;59.400;17.982;2023-07-29T09:34:41;99978.63;;;22.55;60.16
50364;BME280;36272;59.400;17.982;2023-07-29T09:39:46;99982.50;;;22.72;59.55
50364;BME280;36272;59.400;17.982;2023-07-29T09:44:49;99981.50;;;22.85;58.96
50364;BME280;36272;59.400;17.982;2023-07-29T09:49:52;99981.31;;;22.99;58.37
50364;BME280;36272;59.400;17.982;2023-07-29T09:54:54;99993.31;;;23.16;58.21
50364;BME280;36272;59.400;17.982;2023-07-29T09:59:56;99986.53;;;23.31;57.62
50364;BME280;36272;59.400;17.982;2023-07-29T10:04:59;99992.59;;;23.45;56.86
50364;BME280;36272;59.400;17.982;2023-07-29T10:10:02;99980.22;;;23.57;57.20
50364;BME280;36272;59.400;17.982;2023-07-29T10:15:06;99986.66;;;23.82;56.84
50364;BME280;36272;59.400;17.982;2023-07-29T10:20:09;99983.34;;;23.98;56.07
50364;BME280;36272;59.400;17.982;2023-07-29T10:25:38;99967.47;;;24.21;56.30
50364;BME280;36272;59.400;17.982;2023-07-29T10:30:46;99974.59;;;24.56;55.41
50364;BME280;36272;59.400;17.982;2023-07-29T10:35:48;99980.88;;;24.77;55.02
50364;BME280;36272;59.400;17.982;2023-07-29T10:40:52;99970.69;;;24.99;54.57
50364;BME280;36272;59.400;17.982;2023-07-29T10:45:57;99981.31;;;25.13;54.51
50364;BME280;36272;59.400;17.982;2023-07-29T10:51:28;99969.25;;;25.27;54.15
50364;BME280;36272;59.400;17.982;2023-07-29T10:56:37;99969.88;;;25.45;53.50
50364;BME280;36272;59.400;17.982;2023-07-29T11:01:42;99967.94;;;25.58;53.63
50364;BME280;36272;59.400;17.982;2023-07-29T11:12:42;99968.91;;;26.27;52.76
50364;BME280;36272;59.400;17.982;2023-07-29T11:22:47;99984.41;;;32.99;43.94
50364;BME280;36272;59.400;17.982;2023-07-29T11:27:51;99980.72;;;35.00;39.93
50364;BME280;36272;59.400;17.982;2023-07-29T11:32:54;99987.47;;;38.22;36.88
50364;BME280;36272;59.400;17.982;2023-07-29T11:37:56;99983.97;;;41.21;33.14
50364;BME280;36272;59.400;17.982;2023-07-29T11:42:58;99988.88;;;42.72;31.71
50364;BME280;36272;59.400;17.982;2023-07-29T11:48:03;99978.19;;;41.95;30.75
50364;BME280;36272;59.400;17.982;2023-07-29T11:53:05;99986.88;;;42.19;30.43
50364;BME280;36272;59.400;17.982;2023-07-29T11:58:06;99977.06;;;42.14;29.84
50364;BME280;36272;59.400;17.982;2023-07-29T12:03:08;99973.09;;;43.53;28.80
50364;BME280;36272;59.400;17.982;2023-07-29T12:08:11;99977.38;;;44.19;27.78
50364;BME280;36272;59.400;17.982;2023-07-29T12:13:13;99981.75;;;45.61;26.86
50364;BME280;36272;59.400;17.982;2023-07-29T12:18:14;99988.38;;;46.47;26.20
50364;BME280;36272;59.400;17.982;2023-07-29T12:23:16;99986.25;;;46.99;25.87
50364;BME280;36272;59.400;17.982;2023-07-29T12:28:17;99984.56;;;47.75;25.17
50364;BME280;36272;59.400;17.982;2023-07-29T12:33:38;99969.00;;;48.23;24.88
50364;BME280;36272;59.400;17.982;2023-07-29T12:38:42;99965.16;;;48.64;24.26
50364;BME280;36272;59.400;17.982;2023-07-29T12:43:45;99969.91;;;48.84;23.11
50364;BME280;36272;59.400;17.982;2023-07-29T12:48:46;99967.72;;;48.24;23.80
50364;BME280;36272;59.400;17.982;2023-07-29T12:53:48;99979.16;;;48.79;23.37
50364;BME280;36272;59.400;17.982;2023-07-29T12:58:49;99961.56;;;48.26;23.22
50364;BME280;36272;59.400;17.982;2023-07-29T13:03:51;99969.25;;;48.19;22.94
50364;BME280;36272;59.400;17.982;2023-07-29T13:08:53;99961.56;;;48.69;23.24
50364;BME280;36272;59.400;17.982;2023-07-29T13:13:54;99971.44;;;49.63;22.66
50364;BME280;36272;59.400;17.982;2023-07-29T13:18:56;99967.22;;;49.24;22.07
50364;BME280;36272;59.400;17.982;2023-07-29T13:23:58;99968.94;;;48.49;22.64
50364;BME280;36272;59.400;17.982;2023-07-29T13:28:59;99965.22;;;48.00;22.03
50364;BME280;36272;59.400;17.982;2023-07-29T13:34:01;99957.94;;;47.61;22.76
50364;BME280;36272;59.400;17.982;2023-07-29T13:39:03;99961.94;;;47.54;22.84
50364;BME280;36272;59.400;17.982;2023-07-29T13:44:04;99967.66;;;47.13;23.29
50364;BME280;36272;59.400;17.982;2023-07-29T13:49:06;99956.41;;;47.39;23.02
50364;BME280;36272;59.400;17.982;2023-07-29T13:54:07;99960.66;;;47.08;23.07
50364;BME280;36272;59.400;17.982;2023-07-29T13:59:09;99967.75;;;45.66;23.50
50364;BME280;36272;59.400;17.982;2023-07-29T14:04:11;99957.34;;;44.17;24.60
50364;BME280;36272;59.400;17.982;2023-07-29T14:09:12;99959.75;;;44.09;25.29
50364;BME280;36272;59.400;17.982;2023-07-29T14:14:14;99950.09;;;43.92;25.24
50364;BME280;36272;59.400;17.982;2023-07-29T14:19:16;99962.09;;;42.49;25.66
50364;BME280;36272;59.400;17.982;2023-07-29T14:24:18;99957.84;;;41.46;26.87
50364;BME280;36272;59.400;17.982;2023-07-29T14:29:20;99971.44;;;40.35;27.10
50364;BME280;36272;59.400;17.982;2023-07-29T14:34:21;99967.63;;;39.86;27.73
50364;BME280;36272;59.400;17.982;2023-07-29T14:39:23;99962.91;;;39.53;28.04
50364;BME280;36272;59.400;17.982;2023-07-29T14:44:24;99959.31;;;38.70;28.29
50364;BME280;36272;59.400;17.982;2023-07-29T14:49:26;99962.22;;;37.89;29.31
50364;BME280;36272;59.400;17.982;2023-07-29T14:54:28;99964.47;;;38.18;29.11
50364;BME280;36272;59.400;17.982;2023-07-29T14:59:30;99962.53;;;38.15;28.62
50364;BME280;36272;59.400;17.982;2023-07-29T15:04:31;99960.03;;;38.01;28.56
50364;BME280;36272;59.400;17.982;2023-07-29T15:09:33;99959.63;;;37.34;28.44
50364;BME280;36272;59.400;17.982;2023-07-29T15:14:35;99959.56;;;36.63;28.94
50364;BME280;36272;59.400;17.982;2023-07-29T15:19:36;99965.84;;;36.09;29.04
50364;BME280;36272;59.400;17.982;2023-07-29T15:24:38;99965.84;;;35.70;29.26
50364;BME280;36272;59.400;17.982;2023-07-29T15:29:41;99972.13;;;35.33;29.73
50364;BME280;36272;59.400;17.982;2023-07-29T15:34:43;99971.63;;;34.89;30.26
50364;BME280;36272;59.400;17.982;2023-07-29T15:39:44;99965.44;;;34.70;30.78
50364;BME280;36272;59.400;17.982;2023-07-29T15:44:46;99965.50;;;34.59;31.24
50364;BME280;36272;59.400;17.982;2023-07-29T15:49:47;99968.09;;;34.03;31.41
50364;BME280;36272;59.400;17.982;2023-07-29T15:54:49;99970.16;;;33.37;32.03
50364;BME280;36272;59.400;17.982;2023-07-29T15:59:53;99975.56;;;32.46;33.00
50364;BME280;36272;59.400;17.982;2023-07-29T16:04:55;99977.47;;;31.68;34.20
50364;BME280;36272;59.400;17.982;2023-07-29T16:09:56;99967.78;;;30.92;35.23
50364;BME280;36272;59.400;17.982;2023-07-29T16:14:58;99979.88;;;30.46;35.58
50364;BME280;36272;59.400;17.982;2023-07-29T16:20:02;99950.41;;;29.92;35.22
50364;BME280;36272;59.400;17.982;2023-07-29T16:25:04;99961.56;;;29.46;35.85
50364;BME280;36272;59.400;17.982;2023-07-29T16:30:07;99960.47;;;29.04;36.03
50364;BME280;36272;59.400;17.982;2023-07-29T16:35:08;99961.31;;;28.85;36.50
50364;BME280;36272;59.400;17.982;2023-07-29T16:40:11;99961.06;;;28.74;36.68
50364;BME280;36272;59.400;17.982;2023-07-29T16:45:13;99965.00;;;28.53;36.79
50364;BME280;36272;59.400;17.982;2023-07-29T16:50:14;99962.84;;;28.23;36.90
50364;BME280;36272;59.400;17.982;2023-07-29T16:55:16;99964.94;;;27.94;36.65
50364;BME280;36272;59.400;17.982;2023-07-29T17:00:18;99961.81;;;27.60;36.90
50364;BME280;36272;59.400;17.982;2023-07-29T17:05:19;99964.56;;;27.28;37.41
50364;BME280;36272;59.400;17.982;2023-07-29T17:10:21;99958.78;;;27.01;37.60
50364;BME280;36272;59.400;17.982;2023-07-29T17:15:23;99966.22;;;26.72;37.97
50364;BME280;36272;59.400;17.982;2023-07-29T17:20:24;99970.75;;;26.52;38.34
50364;BME280;36272;59.400;17.982;2023-07-29T17:25:26;99973.53;;;26.39;39.01
50364;BME280;36272;59.400;17.982;2023-07-29T17:30:31;99961.22;;;26.33;39.15
50364;BME280;36272;59.400;17.982;2023-07-29T17:35:33;99984.28;;;26.32;38.91
50364;BME280;36272;59.400;17.982;2023-07-29T17:40:35;99968.81;;;26.11;39.57
50364;BME280;36272;59.400;17.982;2023-07-29T17:45:37;99978.06;;;25.94;39.80
50364;BME280;36272;59.400;17.982;2023-07-29T17:50:41;99966.56;;;25.76;40.11
50364;BME280;36272;59.400;17.982;2023-07-29T17:55:43;99984.34;;;25.58;40.75
50364;BME280;36272;59.400;17.982;2023-07-29T18:00:44;99986.59;;;25.43;41.37
50364;BME280;36272;59.400;17.982;2023-07-29T18:05:46;99987.72;;;25.30;41.69
50364;BME280;36272;59.400;17.982;2023-07-29T18:10:47;99990.91;;;25.19;42.24
50364;BME280;36272;59.400;17.982;2023-07-29T18:15:50;99980.38;;;25.09;42.70
50364;BME280;36272;59.400;17.982;2023-07-29T18:20:53;99982.31;;;24.96;43.02
50364;BME280;36272;59.400;17.982;2023-07-29T18:25:54;99974.50;;;24.86;43.09
50364;BME280;36272;59.400;17.982;2023-07-29T18:30:58;99981.88;;;24.73;43.47
50364;BME280;36272;59.400;17.982;2023-07-29T18:35:59;99982.25;;;24.62;43.73
50364;BME280;36272;59.400;17.982;2023-07-29T18:41:02;99980.28;;;24.50;44.11
50364;BME280;36272;59.400;17.982;2023-07-29T18:46:04;99974.28;;;24.36;44.72
50364;BME280;36272;59.400;17.982;2023-07-29T18:51:07;99976.28;;;24.27;44.89
50364;BME280;36272;59.400;17.982;2023-07-29T18:56:09;99983.59;;;24.14;45.87
50364;BME280;36272;59.400;17.982;2023-07-29T19:01:10;99974.69;;;23.96;46.06
50364;BME280;36272;59.400;17.982;2023-07-29T19:09:52;99988.47;;;23.69;46.75
50364;BME280;36272;59.400;17.982;2023-07-29T19:14:58;99983.28;;;23.46;47.42
50364;BME280;36272;59.400;17.982;2023-07-29T19:20:04;99980.28;;;23.22;47.99
50364;BME280;36272;59.400;17.982;2023-07-29T19:25:07;99983.88;;;22.96;48.93
50364;BME280;36272;59.400;17.982;2023-07-29T19:30:13;100003.16;;;22.73;49.41
50364;BME280;36272;59.400;17.982;2023-07-29T19:35:15;100016.16;;;22.58;49.60
50364;BME280;36272;59.400;17.982;2023-07-29T19:40:17;100012.59;;;22.49;50.22
50364;BME280;36272;59.400;17.982;2023-07-29T19:45:19;100006.81;;;22.42;50.52
50364;BME280;36272;59.400;17.982;2023-07-29T19:50:20;100015.94;;;22.28;50.77
50364;BME280;36272;59.400;17.982;2023-07-29T19:55:23;100021.69;;;22.18;51.37
50364;BME280;36272;59.400;17.982;2023-07-29T20:00:26;100033.66;;;22.08;51.92
50364;BME280;36272;59.400;17.982;2023-07-29T20:05:27;100023.38;;;21.96;52.84
50364;BME280;36272;59.400;17.982;2023-07-29T20:10:29;100021.59;;;21.83;53.47
50364;BME280;36272;59.400;17.982;2023-07-29T20:15:32;100022.97;;;21.72;54.01
50364;BME280;36272;59.400;17.982;2023-07-29T20:20:34;100024.34;;;21.60;54.51
50364;BME280;36272;59.400;17.982;2023-07-29T20:25:36;100032.75;;;21.50;55.47
50364;BME280;36272;59.400;17.982;2023-07-29T20:30:37;100024.91;;;21.39;55.62
50364;BME280;36272;59.400;17.982;2023-07-29T20:35:39;100022.72;;;21.28;55.77
50364;BME280;36272;59.400;17.982;2023-07-29T20:40:54;100001.88;;;21.14;56.29
50364;BME280;36272;59.400;17.982;2023-07-29T20:45:56;100022.44;;;21.06;56.27
50364;BME280;36272;59.400;17.982;2023-07-29T20:50:58;100023.31;;;20.93;56.96
50364;BME280;36272;59.400;17.982;2023-07-29T20:56:02;100027.69;;;20.80;57.35
50364;BME280;36272;59.400;17.982;2023-07-29T21:01:04;100021.16;;;20.67;57.46
50364;BME280;36272;59.400;17.982;2023-07-29T21:06:09;100007.03;;;20.56;57.96
50364;BME280;36272;59.400;17.982;2023-07-29T21:11:13;100031.06;;;20.49;58.06
50364;BME280;36272;59.400;17.982;2023-07-29T21:16:15;100026.69;;;20.39;58.18
50364;BME280;36272;59.400;17.982;2023-07-29T21:21:18;100027.22;;;20.27;58.90
50364;BME280;36272;59.400;17.982;2023-07-29T21:26:20;100020.88;;;20.18;59.20
50364;BME280;36272;59.400;17.982;2023-07-29T21:31:21;100031.94;;;20.08;59.10
50364;BME280;36272;59.400;17.982;2023-07-29T21:36:23;100031.03;;;19.98;59.57
50364;BME280;36272;59.400;17.982;2023-07-29T21:41:25;100041.81;;;19.89;60.06
50364;BME280;36272;59.400;17.982;2023-07-29T21:46:26;100038.16;;;19.80;60.57
50364;BME280;36272;59.400;17.982;2023-07-29T21:51:28;100029.09;;;19.71;60.73
50364;BME280;36272;59.400;17.982;2023-07-29T21:56:29;100029.81;;;19.63;61.19
50364;BME280;36272;59.400;17.982;2023-07-29T22:01:31;100036.19;;;19.53;61.13
50364;BME280;36272;59.400;17.982;2023-07-29T22:06:33;100042.13;;;19.41;61.63
50364;BME280;36272;59.400;17.982;2023-07-29T22:11:35;100040.06;;;19.32;61.84
50364;BME280;36272;59.400;17.982;2023-07-29T22:16:37;100051.50;;;19.29;61.92
50364;BME280;36272;59.400;17.982;2023-07-29T22:21:38;100052.50;;;19.20;62.23
50364;BME280;36272;59.400;17.982;2023-07-29T22:26:40;100053.41;;;19.15;62.50
50364;BME280;36272;59.400;17.982;2023-07-29T22:31:41;100051.78;;;19.14;62.70
50364;BME280;36272;59.400;17.982;2023-07-29T22:36:43;100046.13;;;19.10;63.16
50364;BME280;36272;59.400;17.982;2023-07-29T22:41:45;100043.50;;;19.05;62.99
50364;BME280;36272;59.400;17.982;2023-07-29T22:46:46;100050.41;;;18.97;63.33
50364;BME280;36272;59.400;17.982;2023-07-29T22:51:48;100045.63;;;18.89;63.84
50364;BME280;36272;59.400;17.982;2023-07-29T22:56:51;100046.78;;;18.83;63.97
50364;BME280;36272;59.400;17.982;2023-07-29T23:01:53;100042.25;;;18.78;64.11
50364;BME280;36272;59.400;17.982;2023-07-29T23:06:54;100043.16;;;18.73;64.33
50364;BME280;36272;59.400;17.982;2023-07-29T23:11:56;100040.72;;;18.72;64.32
50364;BME280;36272;59.400;17.982;2023-07-29T23:16:58;100042.91;;;18.70;64.76
50364;BME280;36272;59.400;17.982;2023-07-29T23:21:59;100035.38;;;18.67;64.23
50364;BME280;36272;59.400;17.982;2023-07-29T23:27:01;100025.72;;;18.61;64.49
50364;BME280;36272;59.400;17.982;2023-07-29T23:32:02;100033.31;;;18.58;64.84
50364;BME280;36272;59.400;17.982;2023-07-29T23:37:04;100028.78;;;18.54;65.14
50364;BME280;36272;59.400;17.982;2023-07-29T23:42:06;100037.50;;;18.51;65.63
50364;BME280;36272;59.400;17.982;2023-07-29T23:47:08;100032.66;;;18.48;65.69
50364;BME280;36272;59.400;17.982;2023-07-29T23:52:09;100035.69;;;18.46;65.72
50364;BME280;36272;59.400;17.982;2023-07-29T23:57:11;100026.81;;;18.40;65.91
